createdAt,value
2023-01-02T00:03:10.058Z,99746.11
2023-01-02T00:09:28.555Z,99743.80
2023-01-02T00:15:47.479Z,99731.01
2023-01-02T00:22:07.609Z,99724.88
2023-01-02T00:28:05.027Z,99730.26
2023-01-02T00:41:04.182Z,99730.08
2023-01-02T00:49:35.545Z,99732.09
2023-01-02T01:01:52.992Z,99731.65
2023-01-02T01:08:14.615Z,99735.06
2023-01-02T01:13:31.292Z,99732.75
2023-01-02T01:19:17.228Z,99732.05
2023-01-02T01:25:41.295Z,99730.64
2023-01-02T01:32:05.588Z,99733.08
2023-01-02T01:38:21.361Z,99721.05
2023-01-02T01:44:57.162Z,99722.58
2023-01-02T01:51:15.244Z,99720.65
2023-01-02T01:57:16.293Z,99713.48
2023-01-02T02:03:39.519Z,99703.25
2023-01-02T02:09:57.767Z,99701.79
2023-01-02T02:15:58.006Z,99704.27
2023-01-02T02:22:00.557Z,99705.98
2023-01-02T02:28:38.101Z,99697.86
2023-01-02T02:34:30.122Z,99700.67
2023-01-02T02:40:40.586Z,99699.36
2023-01-02T02:47:00.569Z,99700.48
2023-01-02T02:53:17.086Z,99686.16
2023-01-02T02:59:37.903Z,99673.78
2023-01-02T03:05:34.969Z,99670.22
2023-01-02T03:12:08.963Z,99673.19
2023-01-02T03:26:38.665Z,99686.23
2023-01-02T03:40:40.054Z,99681.03
2023-01-02T03:47:50.140Z,99675.82
2023-01-02T03:55:00.012Z,99665.25
2023-01-02T04:01:28.523Z,99660.17
2023-01-02T04:07:58.068Z,99663.02
2023-01-02T04:34:51.243Z,99645.65
2023-01-02T04:41:31.988Z,99648.37
2023-01-02T04:47:14.376Z,99650.31
2023-01-02T04:53:11.198Z,99651.99
2023-01-02T04:58:40.513Z,99648.52
2023-01-02T05:04:42.799Z,99641.55
2023-01-02T05:10:46.944Z,99637.16
2023-01-02T05:16:58.140Z,99624.36
2023-01-02T05:23:07.695Z,99617.90
2023-01-02T05:28:53.108Z,99615.10
2023-01-02T05:34:25.313Z,99608.21
2023-01-02T05:39:43.865Z,99600.29
2023-01-02T05:45:00.189Z,99597.80
2023-01-02T05:51:08.861Z,99597.35
2023-01-02T05:57:30.262Z,99591.50
2023-01-02T06:02:49.490Z,99596.61
2023-01-02T06:08:30.357Z,99600.05
2023-01-02T06:15:08.753Z,99593.92
2023-01-02T06:21:33.497Z,99595.39
2023-01-02T06:27:20.096Z,99600.59
2023-01-02T06:33:08.162Z,99603.85
2023-01-02T06:39:49.201Z,99605.41
2023-01-02T06:51:58.021Z,99620.77
2023-01-02T06:57:47.566Z,99621.59
2023-01-02T07:04:10.669Z,99633.23
2023-01-02T07:09:48.809Z,99636.45
2023-01-02T07:16:12.497Z,99635.59
2023-01-02T07:22:10.745Z,99632.89
2023-01-02T07:28:45.112Z,99626.14
2023-01-02T07:35:18.321Z,99624.39
2023-01-02T07:41:46.216Z,99624.36
2023-01-02T07:47:53.741Z,99621.49
2023-01-02T07:54:32.842Z,99619.20
2023-01-02T08:00:14.701Z,99617.16
2023-01-02T08:05:58.054Z,99612.90
2023-01-02T08:12:35.375Z,99620.45
2023-01-02T08:17:57.351Z,99619.17
2023-01-02T08:23:35.070Z,99618.99
2023-01-02T08:29:50.435Z,99623.11
2023-01-02T08:35:37.374Z,99619.89
2023-01-02T08:41:52.532Z,99627.28
2023-01-02T08:55:21.758Z,99614.73
2023-01-02T09:00:54.249Z,99613.07
2023-01-02T09:07:20.153Z,99603.02
2023-01-02T09:13:50.660Z,99600.71
2023-01-02T09:19:08.093Z,99594.98
2023-01-02T09:24:42.911Z,99588.66
2023-01-02T09:29:59.799Z,99575.32
2023-01-02T09:35:47.887Z,99567.21
2023-01-02T09:41:01.836Z,99559.57
2023-01-02T09:46:32.168Z,99557.79
2023-01-02T09:51:59.016Z,99546.70
2023-01-02T09:57:42.031Z,99542.95
2023-01-02T10:03:39.249Z,99540.90
2023-01-02T10:09:33.460Z,99528.30
2023-01-02T10:15:01.848Z,99529.53
2023-01-02T10:20:30.599Z,99520.36
2023-01-02T10:26:40.570Z,99505.62
2023-01-02T10:32:26.384Z,99494.08
2023-01-02T10:38:39.309Z,99493.64
2023-01-02T10:43:58.159Z,99482.91
2023-01-02T10:49:27.336Z,99472.68
2023-01-02T10:55:09.823Z,99462.67
2023-01-02T11:00:27.486Z,99453.85
2023-01-02T11:06:41.214Z,99441.30
2023-01-02T11:12:43.066Z,99428.73
2023-01-02T11:18:16.912Z,99429.20
2023-01-02T11:23:28.203Z,99426.08
2023-01-02T11:29:39.346Z,99415.77
2023-01-02T11:36:02.198Z,99403.21
2023-01-02T11:42:10.365Z,99395.58
2023-01-02T11:47:32.458Z,99390.19
2023-01-02T11:53:18.424Z,99381.72
2023-01-02T11:59:45.064Z,99370.48
2023-01-02T12:06:06.812Z,99369.57
2023-01-02T12:12:08.478Z,99366.25
2023-01-02T12:17:55.358Z,99353.70
2023-01-02T12:23:33.202Z,99357.15
2023-01-02T12:29:00.147Z,99350.20
2023-01-02T12:34:32.485Z,99346.17
2023-01-02T12:40:28.582Z,99343.46
2023-01-02T12:46:27.603Z,99345.22
2023-01-02T12:52:32.312Z,99343.20
2023-01-02T12:57:59.278Z,99340.50
2023-01-02T13:03:49.322Z,99343.04
2023-01-02T13:09:40.885Z,99337.20
2023-01-02T13:15:03.658Z,99336.83
2023-01-02T13:20:41.788Z,99343.61
2023-01-02T13:26:06.612Z,99349.52
2023-01-02T13:31:48.797Z,99351.80
2023-01-02T13:37:02.209Z,99354.91
2023-01-02T13:42:50.683Z,99354.40
2023-01-02T13:48:17.973Z,99353.33
2023-01-02T13:53:33.702Z,99346.45
2023-01-02T13:59:43.244Z,99352.45
2023-01-02T14:05:35.514Z,99354.60
2023-01-02T14:10:47.222Z,99351.65
2023-01-02T14:16:49.071Z,99352.30
2023-01-02T14:22:56.606Z,99350.98
2023-01-02T14:28:16.840Z,99355.83
2023-01-02T14:34:07.870Z,99359.86
2023-01-02T14:39:54.801Z,99360.39
2023-01-02T14:45:16.391Z,99364.95
2023-01-02T14:50:50.477Z,99367.93
2023-01-02T14:56:23.157Z,99372.55
2023-01-02T15:01:42.040Z,99373.38
2023-01-02T15:07:22.805Z,99378.07
2023-01-02T15:12:52.156Z,99377.75
2023-01-02T15:18:47.304Z,99383.77
2023-01-02T15:23:55.111Z,99385.89
2023-01-02T15:29:35.585Z,99391.99
2023-01-02T15:34:47.735Z,99397.20
2023-01-02T15:40:49.710Z,99403.08
2023-01-02T15:46:22.745Z,99401.00
2023-01-02T15:51:57.816Z,99398.05
2023-01-02T15:57:57.674Z,99413.77
2023-01-02T16:04:02.127Z,99421.34
2023-01-02T16:09:26.313Z,99420.67
2023-01-02T16:14:38.479Z,99427.21
2023-01-02T16:20:31.941Z,99425.99
2023-01-02T16:26:15.273Z,99428.09
2023-01-02T16:32:15.243Z,99418.59
2023-01-02T16:37:29.524Z,99398.96
2023-01-02T16:43:08.465Z,99402.69
2023-01-02T16:48:36.350Z,99411.77
2023-01-02T16:53:48.162Z,99403.67
2023-01-02T16:59:52.820Z,99409.75
2023-01-02T17:04:59.398Z,99395.39
2023-01-02T17:10:23.092Z,99394.73
2023-01-02T17:15:26.597Z,99395.09
2023-01-02T17:20:35.191Z,99403.19
2023-01-02T17:25:41.050Z,99408.27
2023-01-02T17:30:45.380Z,99411.81
2023-01-02T17:35:51.800Z,99413.20
2023-01-02T17:41:16.522Z,99421.62
2023-01-02T17:53:52.486Z,99410.02
2023-01-02T17:59:11.482Z,99397.35
2023-01-02T18:05:09.222Z,99395.06
2023-01-02T18:10:23.701Z,99400.27
2023-01-02T18:16:15.620Z,99400.20
2023-01-02T18:21:47.882Z,99405.54
2023-01-02T18:27:35.636Z,99399.39
2023-01-02T18:33:15.166Z,99403.23
2023-01-02T18:39:02.360Z,99404.43
2023-01-02T18:44:49.771Z,99407.83
2023-01-02T18:50:23.975Z,99417.63
2023-01-02T18:55:51.228Z,99412.24
2023-01-02T19:01:50.691Z,99411.00
2023-01-02T19:07:56.601Z,99423.27
2023-01-02T19:13:35.732Z,99425.48
2023-01-02T19:19:02.686Z,99427.77
2023-01-02T19:24:23.616Z,99432.23
2023-01-02T19:29:46.578Z,99429.83
2023-01-02T19:35:45.580Z,99430.76
2023-01-02T19:41:50.829Z,99435.25
2023-01-02T19:47:06.199Z,99432.17
2023-01-02T19:52:45.787Z,99424.73
2023-01-02T19:58:01.325Z,99423.33
2023-01-02T20:03:07.708Z,99424.92
2023-01-02T20:08:57.184Z,99426.98
2023-01-02T20:14:09.991Z,99433.63
2023-01-02T20:19:16.215Z,99439.48
2023-01-02T20:24:45.948Z,99445.95
2023-01-02T20:30:38.387Z,99444.61
2023-01-02T20:36:09.804Z,99439.34
2023-01-02T20:41:57.847Z,99440.25
2023-01-02T20:47:08.069Z,99462.05
2023-01-02T20:52:14.576Z,99457.02
2023-01-02T20:58:12.604Z,99459.09
2023-01-02T21:03:19.365Z,99469.72
2023-01-02T21:08:38.113Z,99466.06
2023-01-02T21:13:55.523Z,99462.81
2023-01-02T21:19:30.247Z,99470.44
2023-01-02T21:25:37.047Z,99470.35
2023-01-02T21:31:33.814Z,99472.80
2023-01-02T21:36:57.578Z,99483.52
2023-01-02T21:42:23.811Z,99486.74
2023-01-02T21:48:05.120Z,99495.85
2023-01-02T21:54:14.263Z,99510.58
2023-01-02T22:00:11.368Z,99522.27
2023-01-02T22:05:36.559Z,99523.85
2023-01-02T22:11:30.657Z,99530.39
2023-01-02T22:17:41.331Z,99527.70
2023-01-02T22:23:12.421Z,99536.27
2023-01-02T22:29:04.974Z,99536.55
2023-01-02T22:36:06.263Z,99537.51
2023-01-02T22:41:31.746Z,99542.34
2023-01-02T22:47:38.117Z,99547.23
2023-01-02T22:53:02.543Z,99538.84
2023-01-02T22:59:17.159Z,99541.25
2023-01-02T23:04:35.131Z,99550.81
2023-01-02T23:10:31.246Z,99558.05
2023-01-02T23:16:43.444Z,99560.17
2023-01-02T23:22:19.081Z,99562.77
2023-01-02T23:29:05.103Z,99563.80
2023-01-02T23:41:47.990Z,99580.01
2023-01-02T23:47:20.130Z,99591.14
2023-01-02T23:53:11.579Z,99595.35
2023-01-02T23:59:39.067Z,99593.67
